createdAt,value
2018-02-13T00:00:22.725Z,19.93
2018-02-13T00:02:55.244Z,14.17
2018-02-13T00:05:27.740Z,17.53
2018-02-13T00:08:00.270Z,16.20
2018-02-13T00:10:32.790Z,18.50
2018-02-13T00:13:05.302Z,14.70
2018-02-13T00:15:37.871Z,14.33
2018-02-13T00:18:10.375Z,18.13
2018-02-13T00:20:42.901Z,17.33
2018-02-13T00:23:16.336Z,19.83
2018-02-13T00:25:48.932Z,17.50
2018-02-13T00:28:21.429Z,16.37
2018-02-13T00:30:53.953Z,12.53
2018-02-13T00:33:26.455Z,24.43
2018-02-13T00:35:58.973Z,14.13
2018-02-13T00:38:31.471Z,16.53
2018-02-13T00:41:03.996Z,19.93
2018-02-13T00:43:36.551Z,14.37
2018-02-13T00:46:09.075Z,16.37
2018-02-13T00:48:41.583Z,17.43
2018-02-13T00:51:14.098Z,15.23
2018-02-13T00:53:46.604Z,14.47
2018-02-13T00:56:19.119Z,14.23
2018-02-13T00:58:51.618Z,14.23
2018-02-13T01:01:24.132Z,19.37
2018-02-13T01:03:57.265Z,15.70
2018-02-13T01:06:29.787Z,13.87
2018-02-13T01:09:02.299Z,16.87
2018-02-13T01:11:34.821Z,16.20
2018-02-13T01:14:07.332Z,13.23
2018-02-13T01:16:39.857Z,16.23
2018-02-13T01:19:12.352Z,19.87
2018-02-13T01:21:44.892Z,21.10
2018-02-13T01:24:17.388Z,19.70
2018-02-13T01:26:49.914Z,21.13
2018-02-13T01:29:22.414Z,17.83
2018-02-13T01:31:54.937Z,21.70
2018-02-13T01:34:27.446Z,22.13
2018-02-13T01:36:59.976Z,20.50
2018-02-13T01:39:32.476Z,18.77
2018-02-13T01:42:05.022Z,16.67
2018-02-13T01:44:37.523Z,19.70
2018-02-13T01:47:10.049Z,17.57
2018-02-13T01:49:42.555Z,16.83
2018-02-13T01:52:15.093Z,14.77
2018-02-13T01:54:48.429Z,27.77
2018-02-13T01:57:20.947Z,25.43
2018-02-13T01:59:53.441Z,22.60
2018-02-13T02:02:25.961Z,18.50
2018-02-13T02:04:58.491Z,22.53
2018-02-13T02:07:30.998Z,19.63
2018-02-13T02:10:03.503Z,20.27
2018-02-13T02:12:36.025Z,21.30
2018-02-13T02:15:08.706Z,22.63
2018-02-13T02:17:41.271Z,25.83
2018-02-13T02:20:13.796Z,23.50
2018-02-13T02:22:46.311Z,23.30
2018-02-13T02:25:18.830Z,21.83
2018-02-13T02:27:51.348Z,26.90
2018-02-13T02:30:23.842Z,22.03
2018-02-13T02:32:56.995Z,17.97
2018-02-13T02:35:29.556Z,25.03
2018-02-13T02:38:02.116Z,30.53
2018-02-13T02:40:34.620Z,24.97
2018-02-13T02:43:07.313Z,20.43
2018-02-13T02:45:39.807Z,28.77
2018-02-13T02:48:12.332Z,24.60
2018-02-13T02:50:44.830Z,27.83
2018-02-13T02:53:17.355Z,22.30
2018-02-13T02:55:49.861Z,23.80
2018-02-13T02:58:22.457Z,24.17
2018-02-13T03:00:54.953Z,27.87
2018-02-13T03:03:27.483Z,27.70
2018-02-13T03:05:59.982Z,30.03
2018-02-13T03:08:32.512Z,24.23
2018-02-13T03:11:05.034Z,28.33
2018-02-13T03:13:37.587Z,28.77
2018-02-13T03:16:10.113Z,29.53
2018-02-13T03:18:42.631Z,27.67
2018-02-13T03:21:15.131Z,25.67
2018-02-13T03:23:47.643Z,27.17
2018-02-13T03:26:20.157Z,26.73
2018-02-13T03:28:52.681Z,30.10
2018-02-13T03:31:26.321Z,30.30
2018-02-13T03:33:59.446Z,28.30
2018-02-13T03:36:31.946Z,28.70
2018-02-13T03:39:04.472Z,34.30
2018-02-13T03:41:36.978Z,28.83
2018-02-13T03:44:09.518Z,30.53
2018-02-13T03:46:42.032Z,25.13
2018-02-13T03:49:14.567Z,29.33
2018-02-13T03:51:47.139Z,28.03
2018-02-13T03:54:19.631Z,34.90
2018-02-13T03:56:52.144Z,37.43
2018-02-13T03:59:24.644Z,39.10
2018-02-13T04:01:57.171Z,30.37
2018-02-13T04:04:29.673Z,46.50
2018-02-13T04:07:02.245Z,31.50
2018-02-13T04:09:34.734Z,31.20
2018-02-13T04:12:07.260Z,32.13
2018-02-13T04:14:39.765Z,28.80
2018-02-13T04:17:12.310Z,33.67
2018-02-13T04:19:44.802Z,32.00
2018-02-13T04:22:17.342Z,35.10
2018-02-13T04:24:49.855Z,37.80
2018-02-13T04:27:22.388Z,42.60
2018-02-13T04:29:54.899Z,32.47
2018-02-13T04:32:27.413Z,35.67
2018-02-13T04:34:59.914Z,41.57
2018-02-13T04:37:32.441Z,35.13
2018-02-13T04:40:04.950Z,35.37
2018-02-13T04:42:37.477Z,38.70
2018-02-13T04:45:09.984Z,45.97
2018-02-13T04:47:42.509Z,31.90
2018-02-13T04:50:15.015Z,43.73
2018-02-13T04:52:47.547Z,38.57
2018-02-13T04:55:20.047Z,40.43
2018-02-13T04:57:52.569Z,56.93
2018-02-13T05:00:25.069Z,55.10
2018-02-13T05:02:57.591Z,42.77
2018-02-13T05:05:30.081Z,48.30
2018-02-13T05:08:02.604Z,58.57
2018-02-13T05:10:35.091Z,52.00
2018-02-13T05:13:07.611Z,44.10
2018-02-13T05:15:40.104Z,55.60
2018-02-13T05:18:12.632Z,52.93
2018-02-13T05:20:45.141Z,48.20
2018-02-13T05:23:17.644Z,42.03
2018-02-13T05:25:50.145Z,42.53
2018-02-13T05:28:22.676Z,40.00
2018-02-13T05:30:55.180Z,44.47
2018-02-13T05:33:27.691Z,41.93
2018-02-13T05:36:00.196Z,41.07
2018-02-13T05:38:32.709Z,46.70
2018-02-13T05:41:05.204Z,53.60
2018-02-13T05:43:37.743Z,63.13
2018-02-13T05:46:10.265Z,54.83
2018-02-13T05:48:42.772Z,58.57
2018-02-13T05:51:15.266Z,51.07
2018-02-13T05:53:47.785Z,55.27
2018-02-13T05:56:20.287Z,44.40
2018-02-13T05:58:52.810Z,42.40
2018-02-13T06:01:25.298Z,43.53
2018-02-13T06:03:57.815Z,44.47
2018-02-13T06:06:30.308Z,47.63
2018-02-13T06:09:02.837Z,42.83
2018-02-13T06:11:35.329Z,58.60
2018-02-13T06:14:07.844Z,45.10
2018-02-13T06:16:40.342Z,55.53
2018-02-13T06:19:12.863Z,44.67
2018-02-13T06:21:45.368Z,41.47
2018-02-13T06:24:17.904Z,57.43
2018-02-13T06:26:50.401Z,54.60
2018-02-13T06:29:22.927Z,59.80
2018-02-13T06:31:55.432Z,44.27
2018-02-13T06:34:28.007Z,43.20
2018-02-13T06:37:00.504Z,43.03
2018-02-13T06:39:33.020Z,48.20
2018-02-13T06:42:05.525Z,52.47
2018-02-13T06:44:38.311Z,58.57
2018-02-13T06:47:10.825Z,49.90
2018-02-13T06:49:43.348Z,43.03
2018-02-13T06:52:17.901Z,45.20
2018-02-13T06:54:50.415Z,48.07
2018-02-13T06:57:22.912Z,41.57
2018-02-13T06:59:55.427Z,48.23
2018-02-13T07:02:27.933Z,42.50
2018-02-13T07:05:00.450Z,45.70
2018-02-13T07:07:32.956Z,38.43
2018-02-13T07:10:05.471Z,43.00
2018-02-13T07:12:39.952Z,50.20
2018-02-13T07:15:12.467Z,49.30
2018-02-13T07:17:47.570Z,49.40
2018-02-13T07:20:20.096Z,43.30
2018-02-13T07:22:52.611Z,44.03
2018-02-13T07:25:25.184Z,45.50
2018-02-13T07:27:57.715Z,38.47
2018-02-13T07:30:31.247Z,41.33
2018-02-13T07:33:03.759Z,39.43
2018-02-13T07:35:36.273Z,38.73
2018-02-13T07:38:08.792Z,41.50
2018-02-13T07:40:41.294Z,47.30
2018-02-13T07:43:13.825Z,39.63
2018-02-13T07:45:46.334Z,40.90
2018-02-13T07:48:18.922Z,41.77
2018-02-13T07:50:51.433Z,39.17
2018-02-13T07:53:24.057Z,45.47
2018-02-13T07:55:56.557Z,39.70
2018-02-13T07:58:29.300Z,38.77
2018-02-13T08:01:01.818Z,37.73
2018-02-13T08:03:34.350Z,38.73
2018-02-13T08:06:06.970Z,44.00
2018-02-13T08:08:40.212Z,41.87
2018-02-13T08:11:12.790Z,37.77
2018-02-13T08:13:45.320Z,38.23
2018-02-13T08:16:18.209Z,42.73
2018-02-13T08:18:50.828Z,39.23
2018-02-13T08:21:25.518Z,39.83
2018-02-13T08:23:58.259Z,38.47
2018-02-13T08:26:30.773Z,39.23
2018-02-13T08:29:03.377Z,33.20
2018-02-13T08:31:35.894Z,31.73
2018-02-13T08:34:08.415Z,34.80
2018-02-13T08:36:40.919Z,32.27
2018-02-13T08:39:13.446Z,35.57
2018-02-13T08:41:45.973Z,32.10
2018-02-13T08:44:18.545Z,31.17
2018-02-13T08:46:51.097Z,36.77
2018-02-13T08:49:23.659Z,34.10
2018-02-13T08:51:56.567Z,32.90
2018-02-13T08:54:29.097Z,29.30
2018-02-13T08:57:01.652Z,28.03
2018-02-13T08:59:34.163Z,24.73
2018-02-13T09:02:06.663Z,28.30
2018-02-13T09:04:39.204Z,28.87
2018-02-13T09:07:11.753Z,26.93
2018-02-13T09:09:44.275Z,22.67
2018-02-13T09:12:16.776Z,26.03
2018-02-13T09:14:49.307Z,22.47
2018-02-13T09:17:21.807Z,26.83
2018-02-13T09:19:54.383Z,29.37
2018-02-13T09:22:26.878Z,25.70
2018-02-13T09:24:59.443Z,20.50
2018-02-13T09:27:31.968Z,27.73
2018-02-13T09:30:04.496Z,28.37
2018-02-13T09:32:37.000Z,23.23
2018-02-13T09:35:09.531Z,24.83
2018-02-13T09:37:42.055Z,23.33
2018-02-13T09:40:14.578Z,22.33
2018-02-13T09:42:47.090Z,25.20
2018-02-13T09:45:19.626Z,25.37
2018-02-13T09:47:52.129Z,27.97
2018-02-13T09:50:24.644Z,24.80
2018-02-13T09:52:57.137Z,22.93
2018-02-13T09:55:29.661Z,22.60
2018-02-13T09:58:02.162Z,24.90
2018-02-13T10:00:34.903Z,21.87
2018-02-13T10:03:07.620Z,21.90
2018-02-13T10:05:40.153Z,21.00
2018-02-13T10:08:12.644Z,18.70
2018-02-13T10:10:45.162Z,20.47
2018-02-13T10:13:17.670Z,20.50
2018-02-13T10:15:50.184Z,23.30
2018-02-13T10:18:22.699Z,19.90
2018-02-13T10:20:55.251Z,17.77
2018-02-13T10:23:27.758Z,20.90
2018-02-13T10:26:00.284Z,19.13
2018-02-13T10:28:32.795Z,18.83
2018-02-13T10:31:05.320Z,18.37
2018-02-13T10:33:37.844Z,19.30
2018-02-13T10:36:10.365Z,15.70
2018-02-13T10:38:42.863Z,14.43
2018-02-13T10:41:15.390Z,15.27
2018-02-13T10:43:47.874Z,18.70
2018-02-13T10:46:20.417Z,14.40
2018-02-13T10:48:52.925Z,13.67
2018-02-13T10:51:25.449Z,15.53
2018-02-13T10:53:57.944Z,15.07
2018-02-13T10:56:30.466Z,15.03
2018-02-13T10:59:02.988Z,16.10
2018-02-13T11:01:37.534Z,19.90
2018-02-13T11:04:10.063Z,18.10
2018-02-13T11:06:42.556Z,16.43
2018-02-13T11:09:15.075Z,19.03
2018-02-13T11:11:47.577Z,16.23
2018-02-13T11:14:20.086Z,12.80
2018-02-13T11:16:52.590Z,15.77
2018-02-13T11:19:25.123Z,16.40
2018-02-13T11:21:57.618Z,13.43
2018-02-13T11:24:30.134Z,14.40
2018-02-13T11:27:02.636Z,16.17
2018-02-13T11:29:35.171Z,10.10
2018-02-13T11:32:07.666Z,11.63
2018-02-13T11:34:40.185Z,10.77
2018-02-13T11:37:12.688Z,11.37
2018-02-13T11:39:45.207Z,10.30
2018-02-13T11:42:17.703Z,10.30
2018-02-13T11:44:50.272Z,10.37
2018-02-13T11:47:22.766Z,10.33
2018-02-13T11:49:55.284Z,10.97
2018-02-13T11:52:27.775Z,10.73
2018-02-13T11:55:00.287Z,8.67
2018-02-13T11:57:32.776Z,9.00
2018-02-13T12:00:05.294Z,9.97
2018-02-13T12:02:37.784Z,10.60
2018-02-13T12:05:10.300Z,9.57
2018-02-13T12:07:42.790Z,9.43
2018-02-13T12:10:15.301Z,7.30
2018-02-13T12:12:47.802Z,7.73
2018-02-13T12:15:20.330Z,7.30
2018-02-13T12:17:52.822Z,10.13
2018-02-13T12:20:25.339Z,7.00
2018-02-13T12:22:57.833Z,6.73
2018-02-13T12:25:42.204Z,7.30
2018-02-13T12:28:14.675Z,6.80
2018-02-13T12:30:47.213Z,7.67
2018-02-13T12:33:19.739Z,8.43
2018-02-13T12:35:52.251Z,4.83
2018-02-13T12:38:24.735Z,8.47
2018-02-13T12:40:57.250Z,6.97
2018-02-13T12:43:29.808Z,7.90
2018-02-13T12:46:02.305Z,5.80
2018-02-13T12:48:34.802Z,7.67
2018-02-13T12:51:07.327Z,7.23
2018-02-13T12:53:39.820Z,6.33
2018-02-13T12:56:12.333Z,5.80
2018-02-13T12:58:44.821Z,9.83
2018-02-13T13:01:17.327Z,6.37
2018-02-13T13:03:49.822Z,8.90
2018-02-13T13:06:22.332Z,5.37
2018-02-13T13:08:54.830Z,10.07
2018-02-13T13:11:27.341Z,7.73
2018-02-13T13:13:59.832Z,8.33
2018-02-13T13:16:32.353Z,5.47
2018-02-13T13:19:04.860Z,8.03
2018-02-13T13:21:37.372Z,6.40
2018-02-13T13:24:09.861Z,7.53
2018-02-13T13:26:42.363Z,7.13
2018-02-13T13:29:14.857Z,8.10
2018-02-13T13:31:47.373Z,8.10
2018-02-13T13:34:19.886Z,5.23
2018-02-13T13:36:52.391Z,7.83
2018-02-13T13:39:24.881Z,5.43
2018-02-13T13:41:57.413Z,7.80
2018-02-13T13:44:29.928Z,4.30
2018-02-13T13:47:02.451Z,3.60
2018-02-13T13:49:34.944Z,6.47
2018-02-13T13:52:07.464Z,4.00
2018-02-13T13:54:39.964Z,8.87
2018-02-13T13:57:12.486Z,7.07
2018-02-13T13:59:44.967Z,5.17
2018-02-13T14:02:17.468Z,3.90
2018-02-13T14:04:49.956Z,6.97
2018-02-13T14:07:22.519Z,6.60
2018-02-13T14:09:54.995Z,5.53
2018-02-13T14:12:27.521Z,6.97
2018-02-13T14:15:00.024Z,6.87
2018-02-13T14:17:34.296Z,5.53
2018-02-13T14:20:06.790Z,6.60
2018-02-13T14:22:40.494Z,8.43
2018-02-13T14:25:13.017Z,5.80
2018-02-13T14:27:45.514Z,7.10
2018-02-13T14:30:18.017Z,6.63
2018-02-13T14:32:50.504Z,5.10
2018-02-13T14:35:23.034Z,5.27
2018-02-13T14:37:55.516Z,4.07
2018-02-13T14:40:28.031Z,7.10
2018-02-13T14:43:00.518Z,4.60
2018-02-13T14:45:33.017Z,4.63
2018-02-13T14:48:05.615Z,5.30
2018-02-13T14:50:38.138Z,6.87
2018-02-13T14:53:10.623Z,6.20
2018-02-13T14:55:43.131Z,8.97
2018-02-13T14:58:16.062Z,9.67
2018-02-13T15:00:48.886Z,8.50
2018-02-13T15:03:21.394Z,4.43
2018-02-13T15:05:53.912Z,9.13
2018-02-13T15:08:26.411Z,5.23
2018-02-13T15:10:58.911Z,6.77
2018-02-13T15:13:31.401Z,8.23
2018-02-13T15:16:03.920Z,6.37
2018-02-13T15:18:36.471Z,7.87
2018-02-13T15:21:08.964Z,6.37
2018-02-13T15:23:41.455Z,6.63
2018-02-13T15:26:13.970Z,8.40
2018-02-13T15:28:46.502Z,5.67
2018-02-13T15:31:19.009Z,7.33
2018-02-13T15:33:51.494Z,8.87
2018-02-13T15:36:24.009Z,6.53
2018-02-13T15:38:56.523Z,8.57
2018-02-13T15:41:29.040Z,6.63
2018-02-13T15:44:01.536Z,7.17
2018-02-13T15:46:34.082Z,14.30
2018-02-13T15:49:06.577Z,9.63
2018-02-13T15:51:39.136Z,11.13
2018-02-13T15:54:11.682Z,6.03
2018-02-13T15:56:44.193Z,7.00
2018-02-13T15:59:16.705Z,8.37
2018-02-13T16:01:49.325Z,9.93
2018-02-13T16:04:21.817Z,5.17
2018-02-13T16:06:54.326Z,9.17
2018-02-13T16:09:26.885Z,7.93
2018-02-13T16:11:59.394Z,7.70
2018-02-13T16:14:31.885Z,8.87
2018-02-13T16:17:04.791Z,7.33
2018-02-13T16:19:37.366Z,7.80
2018-02-13T16:22:09.875Z,6.67
2018-02-13T16:24:42.636Z,6.97
2018-02-13T16:27:16.510Z,8.60
2018-02-13T16:29:49.372Z,7.77
2018-02-13T16:32:24.741Z,13.27
2018-02-13T16:34:57.249Z,16.27
2018-02-13T16:37:33.011Z,30.23
2018-02-13T16:40:06.080Z,32.77
2018-02-13T16:42:38.594Z,32.67
2018-02-13T16:45:14.652Z,27.07
2018-02-13T16:47:47.265Z,22.47
2018-02-13T16:50:19.850Z,14.47
2018-02-13T16:52:53.034Z,20.43
2018-02-13T16:55:27.783Z,20.90
2018-02-13T16:58:00.318Z,19.83
2018-02-13T17:00:37.691Z,43.97
2018-02-13T17:03:10.254Z,30.37
2018-02-13T17:05:42.791Z,16.50
2018-02-13T17:08:15.307Z,18.37
2018-02-13T17:10:47.816Z,13.63
2018-02-13T17:13:20.337Z,12.67
2018-02-13T17:15:52.857Z,10.23
2018-02-13T17:18:25.375Z,12.20
2018-02-13T17:20:57.866Z,10.47
2018-02-13T17:23:30.388Z,18.97
2018-02-13T17:26:02.878Z,16.47
2018-02-13T17:28:35.402Z,56.43
2018-02-13T17:31:07.902Z,40.57
2018-02-13T17:33:40.426Z,21.20
2018-02-13T17:36:12.917Z,14.43
2018-02-13T17:38:45.441Z,13.73
2018-02-13T17:41:17.975Z,12.30
2018-02-13T17:43:50.546Z,10.90
2018-02-13T17:46:23.096Z,12.40
2018-02-13T17:48:55.595Z,11.03
2018-02-13T17:51:28.135Z,11.87
2018-02-13T17:54:00.633Z,11.53
2018-02-13T17:59:11.949Z,7.73
2018-02-13T18:01:44.692Z,9.13
2018-02-13T18:04:17.200Z,7.40
2018-02-13T18:06:49.729Z,11.10
2018-02-13T18:09:22.237Z,10.63
2018-02-13T18:11:54.753Z,13.33
2018-02-13T18:14:27.301Z,16.20
2018-02-13T18:16:59.835Z,11.57
2018-02-13T18:19:32.335Z,11.10
2018-02-13T18:22:04.846Z,10.83
2018-02-13T18:24:37.348Z,11.70
2018-02-13T18:27:09.873Z,13.13
2018-02-13T18:29:42.364Z,9.70
2018-02-13T18:32:14.896Z,11.93
2018-02-13T18:34:47.410Z,11.10
2018-02-13T18:37:20.006Z,9.80
2018-02-13T18:39:52.506Z,10.40
2018-02-13T18:42:25.026Z,13.30
2018-02-13T18:44:57.525Z,11.47
2018-02-13T18:47:30.059Z,9.87
2018-02-13T18:50:02.572Z,30.67
2018-02-13T18:55:07.559Z,33.83
2018-02-13T18:57:40.080Z,24.20
2018-02-13T19:00:13.595Z,14.57
2018-02-13T19:02:46.109Z,13.50
2018-02-13T19:05:18.994Z,19.33
2018-02-13T19:07:57.858Z,13.27
2018-02-13T19:10:31.023Z,15.17
2018-02-13T19:13:03.602Z,20.60
2018-02-13T19:15:36.112Z,15.40
2018-02-13T19:18:08.712Z,14.87
2018-02-13T19:20:41.238Z,19.97
2018-02-13T19:23:13.794Z,24.00
2018-02-13T19:25:46.284Z,44.53
2018-02-13T19:28:18.811Z,41.10
2018-02-13T19:30:51.305Z,54.03
2018-02-13T19:33:23.832Z,64.33
2018-02-13T19:35:56.333Z,61.50
2018-02-13T19:38:28.849Z,50.67
2018-02-13T19:41:01.357Z,35.97
2018-02-13T19:43:33.867Z,19.80
2018-02-13T19:46:06.440Z,17.13
2018-02-13T19:48:38.964Z,20.70
2018-02-13T19:51:11.545Z,24.97
2018-02-13T19:53:44.073Z,19.60
2018-02-13T19:56:16.582Z,18.93
2018-02-13T19:58:49.105Z,15.10
2018-02-13T20:01:21.625Z,16.77
2018-02-13T20:03:54.151Z,18.33
2018-02-13T20:06:26.646Z,19.17
2018-02-13T20:08:59.166Z,24.40
2018-02-13T20:11:31.685Z,20.07
2018-02-13T20:14:04.212Z,23.63
2018-02-13T20:16:36.722Z,23.27
2018-02-13T20:19:09.869Z,16.90
2018-02-13T20:21:42.377Z,15.80
2018-02-13T20:24:15.947Z,21.87
2018-02-13T20:26:48.840Z,11.70
2018-02-13T20:29:21.353Z,12.03
2018-02-13T20:31:53.878Z,11.17
2018-02-13T20:34:28.356Z,11.10
2018-02-13T20:37:00.924Z,16.03
2018-02-13T20:39:33.724Z,12.13
2018-02-13T20:42:06.256Z,12.37
2018-02-13T20:44:38.778Z,10.20
2018-02-13T20:47:11.277Z,15.10
2018-02-13T20:49:43.796Z,9.70
2018-02-13T20:52:16.287Z,11.93
2018-02-13T20:54:51.282Z,13.73
2018-02-13T20:57:25.576Z,14.43
2018-02-13T21:00:01.451Z,13.63
2018-02-13T21:02:34.054Z,15.00
2018-02-13T21:05:06.608Z,12.77
2018-02-13T21:07:41.276Z,15.17
2018-02-13T21:10:22.275Z,12.80
2018-02-13T21:12:58.603Z,8.77
2018-02-13T21:15:31.230Z,8.17
2018-02-13T21:18:04.051Z,11.90
2018-02-13T21:20:36.549Z,12.57
2018-02-13T21:23:09.091Z,13.23
2018-02-13T21:25:41.593Z,10.43
2018-02-13T21:28:14.114Z,15.13
2018-02-13T21:30:46.613Z,12.73
2018-02-13T21:33:19.171Z,9.57
2018-02-13T21:35:51.695Z,9.13
2018-02-13T21:38:24.216Z,12.53
2018-02-13T21:40:56.722Z,11.67
2018-02-13T21:43:29.407Z,13.90
2018-02-13T21:46:01.906Z,15.17
2018-02-13T21:48:34.453Z,18.37
2018-02-13T21:51:06.986Z,17.43
2018-02-13T21:53:39.568Z,15.63
2018-02-13T21:56:12.059Z,14.50
2018-02-13T21:58:44.589Z,14.33
2018-02-13T22:01:17.162Z,10.40
2018-02-13T22:03:49.683Z,14.60
2018-02-13T22:06:22.175Z,16.50
2018-02-13T22:08:54.686Z,17.13
2018-02-13T22:11:27.248Z,16.47
2018-02-13T22:13:59.790Z,16.20
2018-02-13T22:16:32.293Z,10.73
2018-02-13T22:19:04.816Z,14.70
2018-02-13T22:21:37.305Z,13.83
2018-02-13T22:24:09.823Z,14.27
2018-02-13T22:26:43.447Z,11.23
2018-02-13T22:29:16.683Z,12.93
2018-02-13T22:31:49.277Z,12.40
2018-02-13T22:34:21.807Z,16.47
2018-02-13T22:36:54.311Z,15.57
2018-02-13T22:39:26.827Z,12.10
2018-02-13T22:41:59.332Z,13.07
2018-02-13T22:44:32.527Z,12.70
2018-02-13T22:47:06.496Z,10.93
2018-02-13T22:49:39.876Z,13.03
2018-02-13T22:52:12.377Z,14.43
2018-02-13T22:54:44.904Z,11.87
2018-02-13T22:57:17.392Z,11.60
2018-02-13T22:59:49.917Z,11.43
2018-02-13T23:02:22.420Z,11.40
2018-02-13T23:04:54.995Z,11.40
2018-02-13T23:07:27.479Z,13.20
2018-02-13T23:09:59.997Z,12.90
2018-02-13T23:12:32.493Z,10.80
2018-02-13T23:15:05.000Z,18.07
2018-02-13T23:17:37.500Z,15.00
2018-02-13T23:20:10.032Z,12.30
2018-02-13T23:22:42.547Z,14.20
2018-02-13T23:25:15.074Z,13.93
2018-02-13T23:27:47.594Z,12.93
2018-02-13T23:30:20.108Z,12.10
2018-02-13T23:32:52.632Z,13.63
2018-02-13T23:35:25.156Z,12.27
2018-02-13T23:37:57.688Z,14.23
2018-02-13T23:40:30.206Z,14.43
2018-02-13T23:43:02.714Z,14.27
2018-02-13T23:45:35.229Z,15.80
2018-02-13T23:48:07.732Z,10.37
2018-02-13T23:50:40.235Z,8.97
2018-02-13T23:53:12.752Z,12.53
2018-02-13T23:55:45.276Z,12.50
2018-02-13T23:58:17.798Z,11.13
